Terminal Aerodrome Forecast
Issued by NWS Raleigh/Durham, NC

Home | Current Version | Previous Version | Text Only | Print | Product List | Glossary On
Versions: 1 2 3 4 5 6 7 8 9 10 11 12 13 14 15 16 17 18 19 20 21 22 23 24 25 26 27 28 29 30 31 32 33 34 35 36
000
FTUS42 KRAH 280204 AAA
TAFGSO
TAF AMD
KGSO 280204Z 2802/2824 VRB03KT P6SM BKN100
     FM280400 VRB03KT P6SM SCT250
      TEMPO 2809/2812 4SM BR
     FM281800 22008KT P6SM SCT050 PROB30 2821/2824 4SM TSRA
      BKN040CB=

USA.gov is the U.S. government's official web portal to all federal, state and local government web resources and services.